Time;durP1;ratioP1;P1;durP2;ratioP2;P2;SDS_P1;SDS_P2;PMS_P1;PMS_P2;Temp;Humidity;BMP_temperature;BMP_pressure;BME280_temperature;BME280_humidity;BME280_pressure;Samples;Min_cycle;Max_cycle;Signal;HPM_P1;HPM_P2
2021/12/06 00:01:31;;;;;;;0.30;0.30;;;0.80;95.60;;;;;;4956112;28;20513;-73
2021/12/06 00:04:02;;;;;;;0.40;0.40;;;0.90;95.60;;;;;;4955979;29;20228;-74
2021/12/06 00:06:30;;;;;;;0.30;0.30;;;1.00;95.40;;;;;;4955936;28;20170;-72
2021/12/06 00:08:56;;;;;;;0.30;0.30;;;1.00;95.30;;;;;;4955541;28;20177;-69
2021/12/06 00:11:21;;;;;;;0.40;0.40;;;1.00;94.90;;;;;;4955695;28;20197;-70
2021/12/06 00:13:49;;;;;;;0.30;0.30;;;1.00;94.40;;;;;;4955556;29;20201;-71
2021/12/06 00:16:19;;;;;;;0.30;0.30;;;0.90;94.10;;;;;;4955770;28;20213;-72
2021/12/06 00:18:47;;;;;;;0.32;0.32;;;0.70;93.90;;;;;;4955381;28;20204;-70
2021/12/06 00:21:13;;;;;;;0.30;0.30;;;0.50;94.00;;;;;;4955431;29;20614;-70
2021/12/06 00:23:40;;;;;;;0.40;0.40;;;0.50;94.30;;;;;;4955480;28;20188;-71
2021/12/06 00:26:07;;;;;;;0.30;0.30;;;0.30;94.60;;;;;;4955658;28;20264;-70
2021/12/06 00:28:33;;;;;;;0.30;0.30;;;0.20;94.80;;;;;;4955433;28;20261;-70
2021/12/06 00:31:00;;;;;;;0.30;0.30;;;0.10;95.10;;;;;;4954620;28;20268;-73
2021/12/06 00:33:26;;;;;;;0.30;0.30;;;0.10;95.20;;;;;;4955231;28;20676;-70
2021/12/06 00:35:55;;;;;;;0.30;0.30;;;-0.10;95.10;;;;;;4955098;28;20172;-73
2021/12/06 00:38:21;;;;;;;0.40;0.40;;;-0.10;95.00;;;;;;4955085;28;20224;-70
2021/12/06 00:40:49;;;;;;;0.30;0.30;;;-0.30;94.90;;;;;;4955496;29;20264;-70
2021/12/06 00:43:16;;;;;;;0.40;0.40;;;-0.30;95.00;;;;;;4955178;28;20204;-69
2021/12/06 00:45:42;;;;;;;0.30;0.30;;;-0.40;95.20;;;;;;4955372;28;20185;-70
2021/12/06 00:48:08;;;;;;;0.40;0.40;;;-0.40;95.60;;;;;;4955093;28;20256;-70
2021/12/06 00:50:38;;;;;;;0.40;0.40;;;-0.40;95.70;;;;;;4958657;28;20237;-71
2021/12/06 00:53:04;;;;;;;0.40;0.40;;;-0.40;95.70;;;;;;4959061;29;20303;-72
2021/12/06 00:55:30;;;;;;;0.30;0.30;;;-0.50;95.70;;;;;;4959256;29;20184;-70
2021/12/06 00:57:56;;;;;;;0.30;0.30;;;-0.50;95.90;;;;;;4959048;28;20249;-72
2021/12/06 01:00:36;;;;;;;0.40;0.40;;;-0.50;96.30;;;;;;4958993;28;20428;-71
2021/12/06 01:03:07;;;;;;;0.40;0.40;;;-0.40;96.60;;;;;;4959335;29;20584;-70
2021/12/06 01:05:33;;;;;;;0.30;0.30;;;-0.20;96.80;;;;;;4959262;28;20611;-71
2021/12/06 01:07:59;;;;;;;0.30;0.30;;;-0.10;96.80;;;;;;4958899;28;20185;-71
2021/12/06 01:10:27;;;;;;;0.40;0.40;;;0.10;96.90;;;;;;4959039;29;20233;-70
2021/12/06 01:12:53;;;;;;;0.30;0.30;;;0.20;96.80;;;;;;4958675;28;20220;-72
2021/12/06 01:15:19;;;;;;;0.40;0.40;;;0.40;96.80;;;;;;4958785;28;20252;-71
2021/12/06 01:17:46;;;;;;;0.40;0.40;;;0.50;96.40;;;;;;4958800;28;20170;-72
2021/12/06 01:20:18;;;;;;;0.30;0.30;;;0.60;96.30;;;;;;4958796;28;20181;-71
2021/12/06 01:22:51;;;;;;;0.40;0.40;;;0.70;96.20;;;;;;4958691;29;20216;-70
2021/12/06 01:25:32;;;;;;;0.30;0.30;;;0.80;96.40;;;;;;4958840;28;20182;-72
2021/12/06 01:30:50;;;;;;;0.30;0.30;;;1.00;95.60;;;;;;4958761;28;20269;-70
2021/12/06 01:33:41;;;;;;;0.30;0.30;;;1.10;95.40;;;;;;4958398;29;20252;-71
2021/12/06 01:41:37;;;;;;;0.40;0.40;;;0.90;95.00;;;;;;4958611;28;20204;-73
2021/12/06 01:44:20;;;;;;;0.40;0.40;;;0.90;94.90;;;;;;4958342;29;20546;-70
2021/12/06 01:46:50;;;;;;;0.40;0.40;;;0.70;94.70;;;;;;4958477;28;20201;-71
2021/12/06 01:49:18;;;;;;;0.30;0.30;;;0.50;94.70;;;;;;4958021;28;20248;-70
2021/12/06 01:51:46;;;;;;;0.30;0.30;;;0.40;94.90;;;;;;4956846;29;20201;-69
2021/12/06 01:54:15;;;;;;;0.30;0.30;;;0.30;95.00;;;;;;4941202;29;20229;-72
2021/12/06 01:56:42;;;;;;;0.40;0.40;;;0.20;95.20;;;;;;4956789;29;20260;-71
2021/12/06 01:59:09;;;;;;;0.30;0.30;;;0.20;95.30;;;;;;4957823;28;20225;-72
2021/12/06 02:01:35;;;;;;;0.30;0.30;;;0.10;95.40;;;;;;4957279;28;20256;-73
2021/12/06 02:04:01;;;;;;;0.43;0.43;;;0.10;95.60;;;;;;4956853;28;20565;-72
2021/12/06 02:06:27;;;;;;;0.40;0.40;;;0.10;95.70;;;;;;4956813;28;20669;-71
2021/12/06 02:08:53;;;;;;;0.30;0.30;;;0.00;95.90;;;;;;4957783;29;20190;-73
2021/12/06 02:11:22;;;;;;;0.40;0.40;;;0.00;96.00;;;;;;4957889;29;20189;-70
2021/12/06 02:14:41;;;;;;;0.30;0.30;;;-0.10;95.80;;;;;;4956419;29;20665;-71
2021/12/06 02:16:53;;;;;;;0.47;0.47;;;-0.20;95.70;;;;;;4953854;29;20188;-72
2021/12/06 02:19:19;;;;;;;0.35;0.35;;;-0.20;95.90;;;;;;4957651;28;20166;-72
2021/12/06 02:21:45;;;;;;;0.30;0.30;;;-0.20;96.10;;;;;;4957713;28;20657;-69
2021/12/06 02:24:11;;;;;;;0.30;0.30;;;-0.20;96.20;;;;;;4957596;28;20185;-69
2021/12/06 02:26:40;;;;;;;0.40;0.40;;;-0.20;96.10;;;;;;4957567;29;20417;-72
2021/12/06 02:29:08;;;;;;;0.32;0.32;;;-0.20;96.10;;;;;;4957412;28;20405;-69
2021/12/06 02:31:34;;;;;;;0.40;0.40;;;-0.20;95.90;;;;;;4957804;28;20198;-70
2021/12/06 02:34:00;;;;;;;0.35;0.35;;;-0.30;95.80;;;;;;4957325;29;20224;-72
2021/12/06 02:36:26;;;;;;;0.30;0.30;;;-0.40;95.80;;;;;;4957511;29;20166;-73
2021/12/06 02:38:53;;;;;;;0.30;0.30;;;-0.40;96.10;;;;;;4957234;28;20420;-72
2021/12/06 02:41:19;;;;;;;0.40;0.40;;;-0.40;96.20;;;;;;4957296;28;20577;-72
2021/12/06 02:43:46;;;;;;;0.40;0.40;;;-0.40;96.20;;;;;;4957232;28;20225;-72
2021/12/06 02:46:12;;;;;;;0.40;0.40;;;-0.50;96.30;;;;;;4957466;28;20185;-73
2021/12/06 02:48:38;;;;;;;0.40;0.40;;;-0.50;96.30;;;;;;4957070;29;20173;-71
2021/12/06 02:51:06;;;;;;;0.30;0.30;;;-0.50;96.30;;;;;;4957171;29;20518;-73
2021/12/06 02:53:34;;;;;;;0.30;0.30;;;-0.50;96.30;;;;;;4956999;28;20559;-69
2021/12/06 02:56:04;;;;;;;0.40;0.40;;;-0.50;96.30;;;;;;4957080;29;20165;-72
2021/12/06 03:01:06;;;;;;;0.40;0.40;;;-0.60;96.10;;;;;;4957016;28;20185;-72
2021/12/06 03:03:33;;;;;;;0.30;0.30;;;-0.60;95.90;;;;;;4956884;28;20166;-71
2021/12/06 03:05:58;;;;;;;0.40;0.40;;;-0.70;95.70;;;;;;4957007;28;20205;-71
2021/12/06 03:08:48;;;;;;;0.40;0.40;;;-0.80;95.60;;;;;;4956654;29;20557;-73
2021/12/06 03:11:24;;;;;;;0.30;0.30;;;-0.80;95.70;;;;;;4956897;29;20772;-70
2021/12/06 03:13:51;;;;;;;0.40;0.40;;;-0.80;95.80;;;;;;4956389;28;20189;-73
2021/12/06 03:16:17;;;;;;;0.40;0.40;;;-0.80;95.90;;;;;;4955362;29;20180;-70
2021/12/06 03:18:44;;;;;;;0.40;0.40;;;-0.90;95.90;;;;;;4956485;29;20174;-69
2021/12/06 03:21:10;;;;;;;0.40;0.40;;;-0.90;95.70;;;;;;4956548;29;20769;-71
2021/12/06 03:23:36;;;;;;;0.37;0.37;;;-0.90;95.80;;;;;;4956717;28;20261;-70
2021/12/06 03:26:02;;;;;;;0.50;0.50;;;-0.90;95.90;;;;;;4956565;29;20409;-70
2021/12/06 03:28:28;;;;;;;0.50;0.50;;;-1.00;96.10;;;;;;4956187;28;20468;-70
2021/12/06 03:30:54;;;;;;;0.40;0.40;;;-1.00;96.10;;;;;;4956506;29;20188;-70
2021/12/06 03:33:19;;;;;;;0.40;0.40;;;-0.90;96.20;;;;;;4956149;29;20696;-71
2021/12/06 03:35:45;;;;;;;0.30;0.30;;;-1.00;96.10;;;;;;4956251;29;20181;-70
2021/12/06 03:38:11;;;;;;;0.40;0.40;;;-1.00;96.20;;;;;;4956101;28;20170;-71
2021/12/06 03:40:37;;;;;;;0.40;0.40;;;-0.90;96.40;;;;;;4956358;28;20181;-73
2021/12/06 03:43:02;;;;;;;0.30;0.30;;;-0.90;96.40;;;;;;4956264;29;20229;-72
2021/12/06 03:45:28;;;;;;;0.40;0.40;;;-0.80;96.30;;;;;;4956137;28;20201;-70
2021/12/06 03:47:54;;;;;;;0.50;0.50;;;-0.70;96.20;;;;;;4956116;29;20174;-70
2021/12/06 03:50:19;;;;;;;0.40;0.40;;;-0.70;96.10;;;;;;4956137;28;20208;-71
2021/12/06 03:52:45;;;;;;;0.40;0.40;;;-0.60;96.00;;;;;;4955845;29;20240;-70
2021/12/06 03:55:13;;;;;;;0.30;0.30;;;-0.50;95.90;;;;;;4956099;29;20481;-72
2021/12/06 03:57:39;;;;;;;0.40;0.40;;;-0.50;95.60;;;;;;4955832;29;20224;-73
2021/12/06 04:00:07;;;;;;;0.30;0.30;;;-0.50;95.50;;;;;;4955770;28;20193;-70
2021/12/06 04:02:33;;;;;;;0.40;0.40;;;-0.40;95.60;;;;;;4955694;28;20240;-71
2021/12/06 04:04:58;;;;;;;0.40;0.40;;;-0.30;95.40;;;;;;4955744;28;20181;-71
2021/12/06 04:07:24;;;;;;;0.40;0.40;;;-0.30;95.30;;;;;;4955703;29;20217;-72
2021/12/06 04:09:50;;;;;;;0.30;0.30;;;-0.20;95.50;;;;;;4955719;29;20585;-72
2021/12/06 04:12:16;;;;;;;0.40;0.40;;;-0.10;96.10;;;;;;4955719;28;20220;-71
2021/12/06 04:14:42;;;;;;;0.40;0.40;;;0.00;95.60;;;;;;4955670;28;20166;-70
2021/12/06 04:17:09;;;;;;;0.40;0.40;;;0.10;95.70;;;;;;4955648;28;20178;-71
2021/12/06 04:19:35;;;;;;;0.30;0.30;;;0.20;95.50;;;;;;4955772;29;20176;-69
2021/12/06 04:22:02;;;;;;;0.30;0.30;;;0.30;95.30;;;;;;4955458;29;20554;-73
2021/12/06 04:24:28;;;;;;;0.30;0.30;;;0.40;95.10;;;;;;4954933;28;20180;-69
2021/12/06 04:26:54;;;;;;;0.30;0.30;;;0.40;95.30;;;;;;4955591;29;20261;-70
2021/12/06 04:29:20;;;;;;;0.40;0.40;;;0.40;95.00;;;;;;4955280;29;20941;-70
2021/12/06 04:31:49;;;;;;;0.40;0.40;;;0.50;95.00;;;;;;4955248;29;20204;-71
2021/12/06 04:34:16;;;;;;;0.40;0.40;;;0.40;94.90;;;;;;4955241;28;20209;-71
2021/12/06 04:36:44;;;;;;;0.40;0.40;;;0.40;94.80;;;;;;4955413;29;20225;-73
2021/12/06 04:39:14;;;;;;;0.30;0.30;;;0.40;94.90;;;;;;4955318;28;20181;-71
2021/12/06 04:41:40;;;;;;;0.30;0.30;;;0.30;94.80;;;;;;4955481;29;20193;-70
2021/12/06 04:44:06;;;;;;;0.30;0.30;;;0.40;94.80;;;;;;4954054;29;20268;-71
2021/12/06 04:46:33;;;;;;;0.40;0.40;;;0.30;94.90;;;;;;4955421;29;20284;-71
2021/12/06 04:48:58;;;;;;;0.40;0.40;;;0.20;95.10;;;;;;4955132;28;20173;-70
2021/12/06 04:51:24;;;;;;;0.40;0.40;;;0.20;95.40;;;;;;4955281;28;20296;-73
2021/12/06 04:53:51;;;;;;;0.40;0.40;;;0.30;95.70;;;;;;4954988;28;20283;-71
2021/12/06 04:56:34;;;;;;;0.30;0.30;;;0.50;95.80;;;;;;4955112;29;20169;-70
2021/12/06 04:59:15;;;;;;;0.30;0.30;;;0.60;95.80;;;;;;4954995;28;20212;-71
2021/12/06 05:01:42;;;;;;;0.40;0.40;;;0.70;95.40;;;;;;4955199;28;20193;-72
2021/12/06 05:04:17;;;;;;;0.30;0.30;;;0.80;95.10;;;;;;4955057;28;20258;-70
2021/12/06 05:06:47;;;;;;;0.40;0.40;;;0.80;94.70;;;;;;4955278;28;20173;-70
2021/12/06 05:09:20;;;;;;;0.40;0.40;;;0.80;94.70;;;;;;4955116;29;20582;-72
2021/12/06 05:11:46;;;;;;;0.40;0.40;;;0.90;94.80;;;;;;4955117;29;20536;-69
2021/12/06 05:14:12;;;;;;;0.30;0.30;;;0.90;94.60;;;;;;4955329;29;20212;-70
2021/12/06 05:16:38;;;;;;;0.38;0.38;;;1.00;94.70;;;;;;4955017;28;20462;-73
2021/12/06 05:19:05;;;;;;;0.30;0.30;;;1.00;94.60;;;;;;4954721;29;20257;-70
2021/12/06 05:21:34;;;;;;;0.40;0.40;;;1.00;94.60;;;;;;4954868;29;20186;-69
2021/12/06 05:23:59;;;;;;;0.30;0.30;;;1.00;94.30;;;;;;4954835;28;20186;-71
2021/12/06 05:26:25;;;;;;;0.30;0.30;;;1.00;94.20;;;;;;4954975;28;20673;-71
2021/12/06 05:28:57;;;;;;;0.30;0.30;;;0.90;94.30;;;;;;4954886;28;20408;-70
2021/12/06 05:31:23;;;;;;;0.40;0.40;;;0.90;94.40;;;;;;4955196;28;20916;-69
2021/12/06 05:33:58;;;;;;;0.30;0.30;;;1.00;94.60;;;;;;4954724;29;20261;-70
2021/12/06 05:36:24;;;;;;;0.40;0.40;;;1.10;94.70;;;;;;4957746;28;20256;-71
2021/12/06 05:38:51;;;;;;;0.30;0.30;;;1.10;94.70;;;;;;4958342;28;20257;-71
2021/12/06 05:41:17;;;;;;;0.30;0.30;;;1.10;94.80;;;;;;4958421;29;20419;-73
2021/12/06 05:43:42;;;;;;;0.30;0.30;;;1.20;94.90;;;;;;4958325;28;20260;-72
2021/12/06 05:46:08;;;;;;;0.30;0.30;;;1.30;94.90;;;;;;4958528;29;20445;-72
2021/12/06 05:48:34;;;;;;;0.30;0.30;;;1.20;94.80;;;;;;4958250;28;20766;-73
2021/12/06 05:51:00;;;;;;;0.40;0.40;;;1.30;94.80;;;;;;4958166;29;20182;-70
2021/12/06 05:53:26;;;;;;;0.30;0.30;;;1.30;94.90;;;;;;4958093;28;20618;-73
2021/12/06 05:55:52;;;;;;;0.30;0.30;;;1.40;94.90;;;;;;4956972;29;20197;-72
2021/12/06 05:58:21;;;;;;;0.40;0.40;;;1.30;94.80;;;;;;4956682;29;20420;-72
2021/12/06 06:00:47;;;;;;;0.30;0.30;;;1.20;94.80;;;;;;4957831;28;20190;-72
2021/12/06 06:03:12;;;;;;;0.30;0.30;;;1.30;95.00;;;;;;4957941;28;20245;-71
2021/12/06 06:05:39;;;;;;;0.50;0.50;;;1.30;95.00;;;;;;4958151;29;20645;-69
2021/12/06 06:08:06;;;;;;;0.30;0.30;;;1.40;95.10;;;;;;4957731;29;20201;-71
2021/12/06 06:10:32;;;;;;;0.40;0.40;;;1.40;95.00;;;;;;4958011;28;20184;-71
2021/12/06 06:12:59;;;;;;;0.30;0.30;;;1.40;94.90;;;;;;4957905;28;20292;-70
2021/12/06 06:15:26;;;;;;;0.30;0.30;;;1.50;94.90;;;;;;4958004;28;20225;-72
2021/12/06 06:17:52;;;;;;;0.30;0.30;;;1.50;94.80;;;;;;4957688;29;20200;-73
2021/12/06 06:20:23;;;;;;;0.32;0.32;;;1.50;94.70;;;;;;4957953;28;20162;-69
2021/12/06 06:22:49;;;;;;;0.30;0.30;;;1.50;94.70;;;;;;4957554;29;20602;-71
2021/12/06 06:25:15;;;;;;;0.40;0.40;;;1.50;94.80;;;;;;4957883;28;20228;-73
2021/12/06 06:27:42;;;;;;;0.40;0.40;;;1.50;94.80;;;;;;4957480;29;20537;-71
2021/12/06 06:30:09;;;;;;;0.40;0.40;;;1.50;94.80;;;;;;4957493;28;20580;-69
2021/12/06 06:32:34;;;;;;;0.30;0.30;;;1.50;94.70;;;;;;4957364;28;20568;-70
2021/12/06 06:35:00;;;;;;;0.30;0.30;;;1.40;94.80;;;;;;4957444;28;20170;-70
2021/12/06 06:37:26;;;;;;;0.30;0.30;;;1.40;94.90;;;;;;4957209;28;20209;-71
2021/12/06 06:39:52;;;;;;;0.30;0.30;;;1.40;95.00;;;;;;4957344;28;20170;-70
2021/12/06 06:42:22;;;;;;;0.40;0.40;;;1.40;95.20;;;;;;4957196;28;20436;-74
2021/12/06 06:44:49;;;;;;;0.32;0.32;;;1.40;95.30;;;;;;4957398;28;20166;-69
2021/12/06 06:47:15;;;;;;;0.30;0.30;;;1.50;95.50;;;;;;4956575;28;20181;-72
2021/12/06 06:49:41;;;;;;;0.40;0.40;;;1.60;95.30;;;;;;4957305;28;20186;-69
2021/12/06 06:52:06;;;;;;;0.30;0.30;;;1.60;95.60;;;;;;4957049;29;20205;-72
2021/12/06 06:54:32;;;;;;;0.30;0.30;;;1.50;95.20;;;;;;4957322;29;20177;-73
2021/12/06 06:56:58;;;;;;;0.30;0.30;;;1.60;95.40;;;;;;4957466;28;20198;-69
2021/12/06 06:59:23;;;;;;;0.30;0.30;;;1.60;95.60;;;;;;4956701;28;20531;-73
2021/12/06 07:01:49;;;;;;;0.30;0.30;;;1.60;95.20;;;;;;4957005;29;20245;-71
2021/12/06 07:04:15;;;;;;;0.40;0.40;;;1.60;95.10;;;;;;4956995;29;20170;-70
2021/12/06 07:06:42;;;;;;;0.30;0.30;;;1.60;95.10;;;;;;4957079;29;20183;-69
2021/12/06 07:09:08;;;;;;;0.40;0.40;;;1.60;95.10;;;;;;4955512;29;20981;-70
2021/12/06 07:11:34;;;;;;;0.30;0.30;;;1.60;95.10;;;;;;4957090;29;20237;-71
2021/12/06 07:13:59;;;;;;;0.30;0.30;;;1.70;95.30;;;;;;4956663;28;20213;-73
2021/12/06 07:16:26;;;;;;;0.30;0.30;;;1.60;95.30;;;;;;4955519;28;20860;-66
2021/12/06 07:18:52;;;;;;;0.40;0.40;;;2.60;99.90;;;;;;4956951;28;20178;-66
2021/12/06 07:21:18;;;;;;;0.30;0.30;;;4.00;99.90;;;;;;4957085;29;20334;-76
2021/12/06 07:23:45;;;;;;;0.40;0.40;;;5.20;99.40;;;;;;4956918;28;20415;-72
2021/12/06 07:26:13;;;;;;;0.40;0.40;;;5.50;92.50;;;;;;4956544;28;20177;-72
2021/12/06 07:28:40;;;;;;;0.40;0.40;;;5.10;90.10;;;;;;4956503;29;20169;-70
2021/12/06 07:31:06;;;;;;;0.40;0.40;;;4.70;89.80;;;;;;4956673;28;20248;-72
2021/12/06 07:33:35;;;;;;;0.37;0.37;;;4.20;90.10;;;;;;4956334;28;20204;-71
2021/12/06 07:36:02;;;;;;;0.32;0.32;;;3.90;90.70;;;;;;4955926;28;20883;-68
2021/12/06 07:38:28;;;;;;;0.40;0.40;;;3.60;91.20;;;;;;4954543;28;20180;-70
2021/12/06 07:40:54;;;;;;;0.30;0.30;;;3.30;91.80;;;;;;4956229;29;20168;-71
2021/12/06 07:43:21;;;;;;;0.40;0.40;;;3.10;92.10;;;;;;4955483;29;20265;-69
2021/12/06 07:45:47;;;;;;;0.30;0.30;;;2.90;92.30;;;;;;4954416;28;20215;-71
2021/12/06 07:48:13;;;;;;;0.30;0.30;;;2.90;92.60;;;;;;4955656;29;20543;-68
2021/12/06 07:50:39;;;;;;;0.40;0.40;;;2.80;92.80;;;;;;4955698;28;20422;-69
2021/12/06 07:53:05;;;;;;;0.35;0.35;;;2.70;93.20;;;;;;4955100;29;20210;-70
2021/12/06 07:55:34;;;;;;;0.37;0.37;;;2.60;93.60;;;;;;4955656;28;20177;-70
2021/12/06 07:58:01;;;;;;;0.30;0.30;;;2.70;93.90;;;;;;4955260;28;20182;-69
2021/12/06 08:00:34;;;;;;;0.32;0.32;;;2.80;93.90;;;;;;4954033;29;20185;-73
2021/12/06 08:03:00;;;;;;;0.30;0.30;;;2.70;93.60;;;;;;4953686;28;20249;-69
2021/12/06 08:05:30;;;;;;;0.40;0.40;;;2.60;93.50;;;;;;4956462;28;20623;-67
2021/12/06 08:07:57;;;;;;;0.30;0.30;;;2.40;94.00;;;;;;4955609;28;20206;-71
2021/12/06 08:10:23;;;;;;;0.30;0.30;;;2.40;94.50;;;;;;4956132;28;20218;-71
2021/12/06 08:12:49;;;;;;;0.30;0.30;;;2.60;94.80;;;;;;4955614;28;20230;-68
2021/12/06 08:15:15;;;;;;;0.30;0.30;;;2.60;94.70;;;;;;4955801;28;20226;-69
2021/12/06 08:17:40;;;;;;;0.40;0.40;;;2.80;94.50;;;;;;4955570;28;20175;-70
2021/12/06 08:20:09;;;;;;;0.37;0.37;;;2.80;94.30;;;;;;4955080;28;20546;-69
2021/12/06 08:22:35;;;;;;;0.30;0.30;;;2.90;94.50;;;;;;4954940;28;20222;-70
2021/12/06 08:25:03;;;;;;;0.40;0.40;;;3.00;94.60;;;;;;4955987;28;20180;-69
2021/12/06 08:27:29;;;;;;;0.30;0.30;;;3.00;94.20;;;;;;4955654;28;20189;-70
2021/12/06 08:29:54;;;;;;;0.33;0.33;;;3.10;93.80;;;;;;4955982;28;20175;-71
2021/12/06 08:32:20;;;;;;;0.30;0.30;;;3.20;93.50;;;;;;4955431;29;20788;-72
2021/12/06 08:34:47;;;;;;;0.40;0.40;;;3.20;93.30;;;;;;4955395;29;20177;-70
2021/12/06 08:37:13;;;;;;;0.40;0.40;;;3.30;92.90;;;;;;4953988;28;20183;-70
2021/12/06 08:39:39;;;;;;;0.30;0.30;;;3.40;92.90;;;;;;4955606;28;20176;-68
2021/12/06 08:42:07;;;;;;;0.35;0.35;;;3.50;93.00;;;;;;4955677;28;20274;-70
2021/12/06 08:44:33;;;;;;;0.40;0.40;;;3.70;93.10;;;;;;4955774;29;20183;-71
2021/12/06 08:46:59;;;;;;;0.30;0.30;;;3.80;92.90;;;;;;4956038;28;20223;-68
2021/12/06 08:49:25;;;;;;;0.67;0.67;;;3.90;92.60;;;;;;4955366;28;20179;-70
2021/12/06 08:51:55;;;;;;;0.40;0.40;;;3.90;92.90;;;;;;4955333;29;20479;-69
2021/12/06 08:54:24;;;;;;;0.30;0.30;;;4.00;93.00;;;;;;4952455;29;20684;-69
2021/12/06 08:56:52;;;;;;;0.30;0.30;;;4.20;92.90;;;;;;4955419;28;20184;-71
2021/12/06 08:59:18;;;;;;;0.40;0.40;;;4.40;92.80;;;;;;4955014;28;20265;-69
2021/12/06 09:01:43;;;;;;;0.40;0.40;;;4.30;92.30;;;;;;4955185;29;20701;-71
2021/12/06 09:04:12;;;;;;;0.40;0.40;;;4.20;92.20;;;;;;4955260;29;20173;-70
2021/12/06 09:06:40;;;;;;;0.68;0.68;;;4.20;92.10;;;;;;4955242;29;20412;-69
2021/12/06 09:09:08;;;;;;;1.65;1.55;;;4.50;92.40;;;;;;4954971;28;20174;-72
2021/12/06 09:11:39;;;;;;;1.15;1.05;;;4.70;92.30;;;;;;4956739;28;20204;-69
2021/12/06 09:14:06;;;;;;;0.40;0.40;;;4.80;91.90;;;;;;4959480;29;20197;-72
2021/12/06 09:16:32;;;;;;;0.35;0.35;;;4.90;91.30;;;;;;4959122;28;20172;-70
2021/12/06 09:19:00;;;;;;;0.30;0.30;;;4.80;91.10;;;;;;4958842;29;20177;-71
2021/12/06 09:21:26;;;;;;;0.30;0.30;;;4.80;91.30;;;;;;4959057;29;20761;-72
2021/12/06 09:23:55;;;;;;;0.95;0.95;;;4.90;91.60;;;;;;4959168;29;20181;-71
2021/12/06 09:26:21;;;;;;;0.40;0.40;;;4.90;91.40;;;;;;4958729;29;20253;-73
2021/12/06 09:28:47;;;;;;;0.40;0.40;;;4.80;91.20;;;;;;4958497;28;20192;-69
2021/12/06 09:31:15;;;;;;;0.40;0.40;;;4.90;91.10;;;;;;4958864;29;20693;-71
2021/12/06 09:33:41;;;;;;;0.50;0.50;;;5.00;91.00;;;;;;4957385;29;20200;-73
2021/12/06 09:36:07;;;;;;;0.35;0.35;;;5.00;91.00;;;;;;4958884;28;20566;-72
2021/12/06 09:38:38;;;;;;;0.40;0.40;;;5.20;91.10;;;;;;4957031;28;20170;-70
2021/12/06 09:41:12;;;;;;;0.40;0.40;;;5.40;91.00;;;;;;4959013;28;20456;-73
2021/12/06 09:43:41;;;;;;;0.47;0.47;;;5.60;90.50;;;;;;4958468;29;20164;-72
2021/12/06 09:46:10;;;;;;;0.32;0.32;;;5.80;90.40;;;;;;4957313;29;20629;-71
2021/12/06 09:48:37;;;;;;;0.40;0.40;;;5.90;90.60;;;;;;4958452;29;20181;-73
2021/12/06 09:51:09;;;;;;;0.30;0.30;;;6.10;90.30;;;;;;4957402;29;20209;-74
2021/12/06 09:53:36;;;;;;;0.30;0.30;;;6.20;89.20;;;;;;4958685;28;20193;-73
2021/12/06 09:56:09;;;;;;;0.40;0.40;;;6.40;89.10;;;;;;4958772;29;20260;-73
2021/12/06 09:58:36;;;;;;;0.73;0.73;;;6.50;88.60;;;;;;4958111;29;20502;-72
2021/12/06 10:01:09;;;;;;;0.40;0.40;;;7.20;93.40;;;;;;4958228;29;20272;-70
2021/12/06 10:03:36;;;;;;;0.40;0.40;;;8.20;91.40;;;;;;4958563;29;20195;-71
2021/12/06 10:06:04;;;;;;;0.30;0.30;;;9.00;85.60;;;;;;4958171;29;20185;-72
2021/12/06 10:08:34;;;;;;;0.40;0.40;;;9.20;79.90;;;;;;4957819;28;20177;-72
2021/12/06 10:11:00;;;;;;;0.35;0.35;;;8.80;79.30;;;;;;4957930;29;20209;-70
2021/12/06 10:13:26;;;;;;;0.30;0.30;;;8.50;80.40;;;;;;4955342;29;20348;-70
2021/12/06 10:15:52;;;;;;;0.30;0.30;;;8.40;80.90;;;;;;4957952;28;20643;-71
2021/12/06 10:18:20;;;;;;;0.30;0.30;;;8.20;81.80;;;;;;4957636;28;20552;-74
2021/12/06 10:20:47;;;;;;;0.40;0.40;;;8.10;82.60;;;;;;4957903;29;20653;-72
2021/12/06 10:23:16;;;;;;;0.40;0.40;;;8.00;83.40;;;;;;4956884;28;20225;-73
2021/12/06 10:25:46;;;;;;;0.40;0.40;;;7.90;83.10;;;;;;4958037;28;20185;-73
2021/12/06 10:28:14;;;;;;;0.60;0.60;;;7.90;83.60;;;;;;4956227;29;20180;-73
2021/12/06 10:30:43;;;;;;;0.32;0.32;;;7.90;83.90;;;;;;4957641;28;20210;-72
2021/12/06 10:33:13;;;;;;;0.30;0.30;;;7.70;83.60;;;;;;4957403;28;20193;-73
2021/12/06 10:35:41;;;;;;;0.40;0.40;;;7.80;83.70;;;;;;4957283;29;20184;-73
2021/12/06 10:38:08;;;;;;;0.40;0.40;;;7.90;84.10;;;;;;4957366;28;20170;-74
2021/12/06 10:40:38;;;;;;;0.30;0.30;;;7.90;84.30;;;;;;4956608;28;20184;-73
2021/12/06 10:43:09;;;;;;;0.40;0.40;;;7.90;84.30;;;;;;4957154;28;20194;-72
2021/12/06 10:45:44;;;;;;;0.30;0.30;;;7.80;83.70;;;;;;4957535;29;20173;-72
2021/12/06 10:48:18;;;;;;;0.40;0.40;;;7.70;83.60;;;;;;4957142;29;20669;-74
2021/12/06 10:50:53;;;;;;;0.40;0.40;;;7.20;84.10;;;;;;4957212;28;20217;-73
2021/12/06 10:53:31;;;;;;;0.40;0.40;;;6.80;85.80;;;;;;4956969;29;20205;-72
2021/12/06 10:55:58;;;;;;;0.40;0.40;;;6.70;86.50;;;;;;4957756;28;20190;-73
2021/12/06 10:58:26;;;;;;;0.30;0.30;;;6.60;86.50;;;;;;4956870;28;20641;-73
2021/12/06 11:01:07;;;;;;;0.40;0.40;;;6.60;86.70;;;;;;4956877;29;20201;-70
2021/12/06 11:03:45;;;;;;;0.32;0.32;;;6.40;86.80;;;;;;4955799;29;20209;-72
2021/12/06 11:06:31;;;;;;;0.30;0.30;;;6.30;88.00;;;;;;4957104;28;20579;-73
2021/12/06 11:09:04;;;;;;;0.40;0.40;;;5.70;88.60;;;;;;4956653;29;20526;-73
2021/12/06 11:11:37;;;;;;;0.38;0.38;;;5.50;90.50;;;;;;4957157;29;20540;-71
2021/12/06 11:14:07;;;;;;;0.40;0.40;;;5.60;90.80;;;;;;4956866;28;20217;-73
2021/12/06 11:16:35;;;;;;;0.40;0.40;;;5.40;90.70;;;;;;4956795;28;20173;-73
2021/12/06 11:19:04;;;;;;;0.30;0.30;;;5.50;91.10;;;;;;4956420;28;20168;-73
2021/12/06 11:21:30;;;;;;;0.32;0.32;;;5.50;91.00;;;;;;4956668;29;20545;-73
2021/12/06 11:24:02;;;;;;;0.30;0.30;;;5.70;91.20;;;;;;4956775;29;20173;-72
2021/12/06 11:26:29;;;;;;;0.40;0.40;;;5.70;91.30;;;;;;4956566;28;20253;-71
2021/12/06 11:29:01;;;;;;;0.40;0.40;;;5.70;91.10;;;;;;4956441;28;20185;-74
2021/12/06 11:31:26;;;;;;;0.40;0.40;;;6.20;91.10;;;;;;4956305;29;20532;-74
2021/12/06 11:34:01;;;;;;;0.30;0.30;;;6.70;90.10;;;;;;4955964;28;20268;-73
2021/12/06 11:36:28;;;;;;;0.30;0.30;;;6.80;88.60;;;;;;4955593;28;20192;-73
2021/12/06 11:39:15;;;;;;;0.40;0.40;;;7.10;87.30;;;;;;4955506;29;20185;-71
2021/12/06 11:41:45;;;;;;;0.35;0.35;;;7.40;86.70;;;;;;4956349;28;20245;-73
2021/12/06 11:44:19;;;;;;;0.30;0.30;;;7.40;86.50;;;;;;4956157;29;20173;-71
2021/12/06 11:46:46;;;;;;;0.40;0.40;;;7.40;86.10;;;;;;4956148;29;20169;-73
2021/12/06 11:49:17;;;;;;;0.40;0.40;;;7.40;85.80;;;;;;4955976;28;20181;-72
2021/12/06 11:51:43;;;;;;;0.30;0.30;;;7.60;87.60;;;;;;4955986;28;20189;-72
2021/12/06 11:54:09;;;;;;;0.30;0.30;;;7.80;86.40;;;;;;4956092;28;20322;-73
2021/12/06 11:56:44;;;;;;;0.40;0.40;;;7.80;85.00;;;;;;4956118;28;20178;-73
2021/12/06 11:59:12;;;;;;;0.40;0.40;;;7.70;84.50;;;;;;4954513;29;20239;-71
2021/12/06 12:01:49;;;;;;;0.40;0.40;;;7.60;84.30;;;;;;4955880;29;20564;-73
2021/12/06 12:04:19;;;;;;;0.30;0.30;;;7.30;84.40;;;;;;4955946;28;20180;-72
2021/12/06 12:06:47;;;;;;;0.30;0.30;;;7.20;84.60;;;;;;4955986;29;20253;-72
2021/12/06 12:09:22;;;;;;;0.30;0.30;;;7.20;84.40;;;;;;4955774;29;20178;-72
2021/12/06 12:11:59;;;;;;;0.40;0.40;;;7.30;85.70;;;;;;4955871;29;20208;-73
2021/12/06 12:14:30;;;;;;;0.40;0.40;;;7.30;85.80;;;;;;4955869;29;20225;-74
2021/12/06 12:16:56;;;;;;;0.40;0.40;;;7.00;85.20;;;;;;4955595;28;20170;-74
2021/12/06 12:19:22;;;;;;;0.40;0.40;;;6.90;87.00;;;;;;4954322;28;20359;-71
2021/12/06 12:21:48;;;;;;;0.40;0.40;;;6.70;88.00;;;;;;4956280;29;20658;-73
2021/12/06 12:24:14;;;;;;;0.40;0.40;;;6.90;88.70;;;;;;4954439;29;20485;-74
2021/12/06 12:26:50;;;;;;;0.40;0.40;;;7.20;87.40;;;;;;4955759;29;20448;-71
2021/12/06 12:29:24;;;;;;;0.30;0.30;;;7.50;85.20;;;;;;4954227;28;20181;-72
2021/12/06 12:31:52;;;;;;;0.30;0.30;;;7.40;83.60;;;;;;4956021;29;20193;-70
2021/12/06 12:34:18;;;;;;;0.30;0.30;;;7.20;84.20;;;;;;4956063;28;20225;-72
2021/12/06 12:36:44;;;;;;;0.30;0.30;;;6.90;84.40;;;;;;4955400;28;20240;-74
2021/12/06 12:39:17;;;;;;;0.40;0.40;;;6.60;85.50;;;;;;4955474;28;20222;-73
2021/12/06 12:41:55;;;;;;;0.40;0.40;;;6.30;86.20;;;;;;4955497;28;20428;-74
2021/12/06 12:44:22;;;;;;;0.40;0.40;;;6.20;87.50;;;;;;4955818;28;20165;-70
2021/12/06 12:46:50;;;;;;;0.40;0.40;;;6.20;88.50;;;;;;4955748;28;20256;-72
2021/12/06 12:49:19;;;;;;;0.40;0.40;;;6.30;86.60;;;;;;4953919;29;20181;-72
2021/12/06 12:51:57;;;;;;;0.40;0.40;;;6.30;86.80;;;;;;4954101;28;20581;-73
2021/12/06 12:54:28;;;;;;;0.40;0.40;;;5.90;86.80;;;;;;4955413;29;20216;-71
2021/12/06 12:57:12;;;;;;;0.40;0.40;;;5.80;87.40;;;;;;4955224;29;20228;-73
2021/12/06 12:59:56;;;;;;;0.30;0.30;;;5.80;88.30;;;;;;4953653;29;20699;-70
2021/12/06 13:02:34;;;;;;;1.30;1.30;;;5.80;88.20;;;;;;4955273;29;20197;-70
2021/12/06 13:05:00;;;;;;;0.40;0.40;;;5.70;88.10;;;;;;4955399;29;20252;-72
2021/12/06 13:07:31;;;;;;;0.40;0.40;;;5.70;89.10;;;;;;4954966;29;20253;-70
2021/12/06 13:10:18;;;;;;;0.40;0.40;;;5.70;88.80;;;;;;4955549;29;20568;-73
2021/12/06 13:12:58;;;;;;;0.40;0.40;;;5.70;87.90;;;;;;4954848;29;20201;-72